METAR :   LFSB 250630Z 24003KT 210V300 9999 FEW009 SCT140 BKN250 19/17 Q1015 NOSIG

TAF :   LFSB 250500Z 2506/2606 27006KT 9999 FEW030 TEMPO 2506/2511 -SHRA SCT030TCU TEMPO 2511/2518 4000 SHRA SCT030TCU PROB40 TEMPO 2511/2516 30017G30KT 2000 TSRA BKN020 SCT030CB TEMPO 2600/2606 4000 BR PROB40 2602/2605 0500 BCFG BKN003